sensor_id;sensor_type;location;lat;lon;timestamp;P1;durP1;ratioP1;P2;durP2;ratioP2
79047;SDS011;68680;50.764;6.120;2024-03-17T00:01:34;15.07;;;8.15;;
79047;SDS011;68680;50.764;6.120;2024-03-17T00:04:01;10.10;;;7.78;;
79047;SDS011;68680;50.764;6.120;2024-03-17T00:06:27;10.20;;;7.88;;
79047;SDS011;68680;50.764;6.120;2024-03-17T00:08:53;10.98;;;7.57;;
79047;SDS011;68680;50.764;6.120;2024-03-17T00:11:19;11.52;;;7.80;;
79047;SDS011;68680;50.764;6.120;2024-03-17T00:13:44;11.00;;;6.97;;
79047;SDS011;68680;50.764;6.120;2024-03-17T00:16:10;11.70;;;7.28;;
79047;SDS011;68680;50.764;6.120;2024-03-17T00:18:36;10.98;;;7.30;;
79047;SDS011;68680;50.764;6.120;2024-03-17T00:21:03;10.23;;;7.47;;
79047;SDS011;68680;50.764;6.120;2024-03-17T00:23:29;10.63;;;7.10;;
79047;SDS011;68680;50.764;6.120;2024-03-17T00:25:55;11.93;;;7.82;;
79047;SDS011;68680;50.764;6.120;2024-03-17T00:28:21;11.82;;;7.00;;
79047;SDS011;68680;50.764;6.120;2024-03-17T00:30:47;10.15;;;7.50;;
79047;SDS011;68680;50.764;6.120;2024-03-17T00:33:12;9.10;;;7.32;;
79047;SDS011;68680;50.764;6.120;2024-03-17T00:35:38;10.38;;;6.80;;
79047;SDS011;68680;50.764;6.120;2024-03-17T00:38:05;9.43;;;6.70;;
79047;SDS011;68680;50.764;6.120;2024-03-17T00:40:31;8.48;;;6.45;;
79047;SDS011;68680;50.764;6.120;2024-03-17T00:42:57;7.35;;;6.13;;
79047;SDS011;68680;50.764;6.120;2024-03-17T00:45:23;8.60;;;6.63;;
79047;SDS011;68680;50.764;6.120;2024-03-17T00:47:48;9.55;;;6.50;;
79047;SDS011;68680;50.764;6.120;2024-03-17T00:50:15;10.13;;;6.45;;
79047;SDS011;68680;50.764;6.120;2024-03-17T00:52:40;8.77;;;6.60;;
79047;SDS011;68680;50.764;6.120;2024-03-17T00:55:08;8.95;;;6.30;;
79047;SDS011;68680;50.764;6.120;2024-03-17T00:57:33;7.38;;;6.30;;
79047;SDS011;68680;50.764;6.120;2024-03-17T00:59:59;10.75;;;6.45;;
79047;SDS011;68680;50.764;6.120;2024-03-17T01:02:25;9.95;;;6.30;;
79047;SDS011;68680;50.764;6.120;2024-03-17T01:04:51;11.45;;;7.45;;
79047;SDS011;68680;50.764;6.120;2024-03-17T01:07:16;10.00;;;5.80;;
79047;SDS011;68680;50.764;6.120;2024-03-17T01:09:42;11.82;;;6.40;;
79047;SDS011;68680;50.764;6.120;2024-03-17T01:12:09;8.80;;;6.57;;
79047;SDS011;68680;50.764;6.120;2024-03-17T01:14:35;11.95;;;6.65;;
79047;SDS011;68680;50.764;6.120;2024-03-17T01:17:01;9.52;;;5.75;;
79047;SDS011;68680;50.764;6.120;2024-03-17T01:19:27;8.20;;;5.65;;
79047;SDS011;68680;50.764;6.120;2024-03-17T01:21:53;6.88;;;5.55;;
79047;SDS011;68680;50.764;6.120;2024-03-17T01:24:18;7.00;;;5.55;;
79047;SDS011;68680;50.764;6.120;2024-03-17T01:26:45;9.07;;;5.57;;
79047;SDS011;68680;50.764;6.120;2024-03-17T01:29:12;9.38;;;5.85;;
79047;SDS011;68680;50.764;6.120;2024-03-17T01:31:38;8.82;;;5.78;;
79047;SDS011;68680;50.764;6.120;2024-03-17T01:34:04;11.23;;;5.85;;
79047;SDS011;68680;50.764;6.120;2024-03-17T01:36:30;10.70;;;6.38;;
79047;SDS011;68680;50.764;6.120;2024-03-17T01:38:55;11.50;;;6.40;;
79047;SDS011;68680;50.764;6.120;2024-03-17T01:41:21;7.78;;;5.88;;
79047;SDS011;68680;50.764;6.120;2024-03-17T01:43:47;9.65;;;7.03;;
79047;SDS011;68680;50.764;6.120;2024-03-17T01:46:15;8.38;;;6.53;;
79047;SDS011;68680;50.764;6.120;2024-03-17T01:48:42;11.75;;;6.40;;
79047;SDS011;68680;50.764;6.120;2024-03-17T01:51:08;9.18;;;6.35;;
79047;SDS011;68680;50.764;6.120;2024-03-17T01:53:36;11.27;;;7.18;;
79047;SDS011;68680;50.764;6.120;2024-03-17T01:56:04;8.90;;;6.28;;
79047;SDS011;68680;50.764;6.120;2024-03-17T01:58:34;8.70;;;7.15;;
79047;SDS011;68680;50.764;6.120;2024-03-17T02:01:02;14.27;;;7.00;;
79047;SDS011;68680;50.764;6.120;2024-03-17T02:03:29;7.95;;;6.18;;
79047;SDS011;68680;50.764;6.120;2024-03-17T02:05:55;12.65;;;7.47;;
79047;SDS011;68680;50.764;6.120;2024-03-17T02:08:22;7.28;;;6.30;;
79047;SDS011;68680;50.764;6.120;2024-03-17T02:10:50;11.15;;;6.65;;
79047;SDS011;68680;50.764;6.120;2024-03-17T02:13:18;8.65;;;6.22;;
79047;SDS011;68680;50.764;6.120;2024-03-17T02:15:45;12.55;;;6.82;;
79047;SDS011;68680;50.764;6.120;2024-03-17T02:18:11;11.30;;;6.78;;
79047;SDS011;68680;50.764;6.120;2024-03-17T02:20:38;9.63;;;6.20;;
79047;SDS011;68680;50.764;6.120;2024-03-17T02:23:05;10.05;;;6.53;;
79047;SDS011;68680;50.764;6.120;2024-03-17T02:25:31;7.47;;;6.68;;
79047;SDS011;68680;50.764;6.120;2024-03-17T02:27:56;10.57;;;7.00;;
79047;SDS011;68680;50.764;6.120;2024-03-17T02:30:22;12.20;;;6.28;;
79047;SDS011;68680;50.764;6.120;2024-03-17T02:32:51;8.57;;;5.85;;
79047;SDS011;68680;50.764;6.120;2024-03-17T02:35:17;8.77;;;6.22;;
79047;SDS011;68680;50.764;6.120;2024-03-17T02:37:43;7.85;;;5.88;;
79047;SDS011;68680;50.764;6.120;2024-03-17T02:40:10;9.32;;;6.28;;
79047;SDS011;68680;50.764;6.120;2024-03-17T02:42:37;9.65;;;6.15;;
79047;SDS011;68680;50.764;6.120;2024-03-17T02:45:03;12.77;;;6.43;;
79047;SDS011;68680;50.764;6.120;2024-03-17T02:47:29;7.85;;;6.05;;
79047;SDS011;68680;50.764;6.120;2024-03-17T02:49:55;9.55;;;7.07;;
79047;SDS011;68680;50.764;6.120;2024-03-17T02:52:21;12.15;;;6.38;;
79047;SDS011;68680;50.764;6.120;2024-03-17T02:54:47;9.77;;;6.10;;
79047;SDS011;68680;50.764;6.120;2024-03-17T02:57:15;7.90;;;5.80;;
79047;SDS011;68680;50.764;6.120;2024-03-17T02:59:40;8.48;;;6.00;;
79047;SDS011;68680;50.764;6.120;2024-03-17T03:02:06;6.63;;;5.57;;
79047;SDS011;68680;50.764;6.120;2024-03-17T03:04:32;10.20;;;7.35;;
79047;SDS011;68680;50.764;6.120;2024-03-17T03:06:58;13.55;;;6.68;;
79047;SDS011;68680;50.764;6.120;2024-03-17T03:09:23;9.52;;;6.30;;
79047;SDS011;68680;50.764;6.120;2024-03-17T03:11:49;11.05;;;6.50;;
79047;SDS011;68680;50.764;6.120;2024-03-17T03:14:16;9.95;;;6.63;;
79047;SDS011;68680;50.764;6.120;2024-03-17T03:16:42;9.35;;;6.13;;
79047;SDS011;68680;50.764;6.120;2024-03-17T03:19:08;11.25;;;6.35;;
79047;SDS011;68680;50.764;6.120;2024-03-17T03:21:34;9.15;;;6.47;;
79047;SDS011;68680;50.764;6.120;2024-03-17T03:24:00;12.80;;;6.53;;
79047;SDS011;68680;50.764;6.120;2024-03-17T03:26:26;8.75;;;6.28;;
79047;SDS011;68680;50.764;6.120;2024-03-17T03:28:51;10.13;;;6.20;;
79047;SDS011;68680;50.764;6.120;2024-03-17T03:31:19;10.90;;;6.50;;
79047;SDS011;68680;50.764;6.120;2024-03-17T03:33:44;9.63;;;6.38;;
79047;SDS011;68680;50.764;6.120;2024-03-17T03:36:11;8.52;;;6.30;;
79047;SDS011;68680;50.764;6.120;2024-03-17T03:38:39;10.43;;;6.20;;
79047;SDS011;68680;50.764;6.120;2024-03-17T03:41:08;8.98;;;6.00;;
79047;SDS011;68680;50.764;6.120;2024-03-17T03:43:35;8.70;;;6.43;;
79047;SDS011;68680;50.764;6.120;2024-03-17T03:46:01;10.10;;;6.47;;
79047;SDS011;68680;50.764;6.120;2024-03-17T03:48:29;11.18;;;6.80;;
79047;SDS011;68680;50.764;6.120;2024-03-17T03:50:55;9.57;;;6.53;;
79047;SDS011;68680;50.764;6.120;2024-03-17T03:53:21;12.57;;;6.20;;
79047;SDS011;68680;50.764;6.120;2024-03-17T03:55:47;9.18;;;6.07;;
79047;SDS011;68680;50.764;6.120;2024-03-17T03:58:12;9.25;;;6.55;;
79047;SDS011;68680;50.764;6.120;2024-03-17T04:00:38;9.57;;;6.30;;
79047;SDS011;68680;50.764;6.120;2024-03-17T04:03:04;9.88;;;6.30;;
79047;SDS011;68680;50.764;6.120;2024-03-17T04:05:32;9.27;;;6.63;;
79047;SDS011;68680;50.764;6.120;2024-03-17T04:07:57;8.82;;;5.78;;
79047;SDS011;68680;50.764;6.120;2024-03-17T04:10:23;9.80;;;6.55;;
79047;SDS011;68680;50.764;6.120;2024-03-17T04:12:49;10.63;;;6.25;;
79047;SDS011;68680;50.764;6.120;2024-03-17T04:15:15;10.30;;;6.32;;
79047;SDS011;68680;50.764;6.120;2024-03-17T04:17:42;10.63;;;6.50;;
79047;SDS011;68680;50.764;6.120;2024-03-17T04:20:08;8.00;;;5.38;;
79047;SDS011;68680;50.764;6.120;2024-03-17T04:22:36;11.13;;;6.78;;
79047;SDS011;68680;50.764;6.120;2024-03-17T04:25:02;9.02;;;6.25;;
79047;SDS011;68680;50.764;6.120;2024-03-17T04:27:29;8.45;;;6.03;;
79047;SDS011;68680;50.764;6.120;2024-03-17T04:29:56;7.95;;;5.60;;
79047;SDS011;68680;50.764;6.120;2024-03-17T04:32:24;9.07;;;5.90;;
79047;SDS011;68680;50.764;6.120;2024-03-17T04:34:50;9.48;;;5.93;;
79047;SDS011;68680;50.764;6.120;2024-03-17T04:37:16;7.80;;;5.38;;
79047;SDS011;68680;50.764;6.120;2024-03-17T04:39:45;8.57;;;5.15;;
79047;SDS011;68680;50.764;6.120;2024-03-17T04:42:12;8.93;;;5.55;;
79047;SDS011;68680;50.764;6.120;2024-03-17T04:44:39;13.70;;;6.20;;
79047;SDS011;68680;50.764;6.120;2024-03-17T04:47:06;7.97;;;5.30;;
79047;SDS011;68680;50.764;6.120;2024-03-17T04:49:32;7.75;;;5.20;;
79047;SDS011;68680;50.764;6.120;2024-03-17T04:51:57;10.18;;;5.35;;
79047;SDS011;68680;50.764;6.120;2024-03-17T04:54:23;12.10;;;5.45;;
79047;SDS011;68680;50.764;6.120;2024-03-17T04:56:50;9.85;;;6.07;;
79047;SDS011;68680;50.764;6.120;2024-03-17T04:59:16;10.65;;;5.93;;
79047;SDS011;68680;50.764;6.120;2024-03-17T05:01:42;8.50;;;5.63;;
79047;SDS011;68680;50.764;6.120;2024-03-17T05:04:07;9.73;;;5.93;;
79047;SDS011;68680;50.764;6.120;2024-03-17T05:06:33;7.82;;;5.25;;
79047;SDS011;68680;50.764;6.120;2024-03-17T05:08:59;7.30;;;5.60;;
79047;SDS011;68680;50.764;6.120;2024-03-17T05:11:25;8.65;;;5.30;;
79047;SDS011;68680;50.764;6.120;2024-03-17T05:13:52;6.78;;;5.03;;
79047;SDS011;68680;50.764;6.120;2024-03-17T05:16:18;7.70;;;4.97;;
79047;SDS011;68680;50.764;6.120;2024-03-17T05:18:44;7.72;;;5.13;;
79047;SDS011;68680;50.764;6.120;2024-03-17T05:21:09;10.60;;;5.10;;
79047;SDS011;68680;50.764;6.120;2024-03-17T05:23:36;7.43;;;4.57;;
79047;SDS011;68680;50.764;6.120;2024-03-17T05:26:02;8.23;;;5.25;;
79047;SDS011;68680;50.764;6.120;2024-03-17T05:28:29;7.95;;;5.80;;
79047;SDS011;68680;50.764;6.120;2024-03-17T05:30:57;11.95;;;5.50;;
79047;SDS011;68680;50.764;6.120;2024-03-17T05:33:23;9.88;;;5.50;;
79047;SDS011;68680;50.764;6.120;2024-03-17T05:35:51;6.25;;;5.10;;
79047;SDS011;68680;50.764;6.120;2024-03-17T05:38:18;6.00;;;4.82;;
79047;SDS011;68680;50.764;6.120;2024-03-17T05:40:52;10.88;;;5.28;;
79047;SDS011;68680;50.764;6.120;2024-03-17T05:43:19;6.63;;;4.78;;
79047;SDS011;68680;50.764;6.120;2024-03-17T05:45:45;7.00;;;5.47;;
79047;SDS011;68680;50.764;6.120;2024-03-17T05:48:12;8.98;;;5.30;;
79047;SDS011;68680;50.764;6.120;2024-03-17T05:50:37;9.25;;;5.30;;
79047;SDS011;68680;50.764;6.120;2024-03-17T05:53:03;8.18;;;5.35;;
79047;SDS011;68680;50.764;6.120;2024-03-17T05:55:29;12.40;;;5.13;;
79047;SDS011;68680;50.764;6.120;2024-03-17T05:57:55;8.38;;;4.95;;
79047;SDS011;68680;50.764;6.120;2024-03-17T06:00:21;7.00;;;5.20;;
79047;SDS011;68680;50.764;6.120;2024-03-17T06:02:46;10.65;;;4.88;;
79047;SDS011;68680;50.764;6.120;2024-03-17T06:05:14;8.60;;;5.15;;
79047;SDS011;68680;50.764;6.120;2024-03-17T06:07:39;11.85;;;6.05;;
79047;SDS011;68680;50.764;6.120;2024-03-17T06:10:06;11.57;;;4.75;;
79047;SDS011;68680;50.764;6.120;2024-03-17T06:12:32;8.07;;;5.30;;
79047;SDS011;68680;50.764;6.120;2024-03-17T06:14:58;10.95;;;5.78;;
79047;SDS011;68680;50.764;6.120;2024-03-17T06:17:24;6.63;;;5.00;;
79047;SDS011;68680;50.764;6.120;2024-03-17T06:19:50;5.80;;;4.95;;
79047;SDS011;68680;50.764;6.120;2024-03-17T06:22:17;7.10;;;5.05;;
79047;SDS011;68680;50.764;6.120;2024-03-17T06:24:42;7.82;;;4.80;;
79047;SDS011;68680;50.764;6.120;2024-03-17T06:27:08;12.88;;;5.10;;
79047;SDS011;68680;50.764;6.120;2024-03-17T06:29:34;9.85;;;6.20;;
79047;SDS011;68680;50.764;6.120;2024-03-17T06:32:00;11.00;;;5.95;;
79047;SDS011;68680;50.764;6.120;2024-03-17T06:34:26;8.35;;;5.57;;
79047;SDS011;68680;50.764;6.120;2024-03-17T06:36:52;10.93;;;5.88;;
79047;SDS011;68680;50.764;6.120;2024-03-17T06:39:19;10.35;;;5.90;;
79047;SDS011;68680;50.764;6.120;2024-03-17T06:41:45;11.48;;;5.60;;
79047;SDS011;68680;50.764;6.120;2024-03-17T06:44:11;9.05;;;4.93;;
79047;SDS011;68680;50.764;6.120;2024-03-17T06:46:36;9.45;;;5.38;;
79047;SDS011;68680;50.764;6.120;2024-03-17T06:49:02;10.20;;;5.55;;
79047;SDS011;68680;50.764;6.120;2024-03-17T06:51:28;11.52;;;5.80;;
79047;SDS011;68680;50.764;6.120;2024-03-17T06:53:54;9.57;;;5.30;;
79047;SDS011;68680;50.764;6.120;2024-03-17T06:56:21;13.70;;;6.35;;
79047;SDS011;68680;50.764;6.120;2024-03-17T06:58:47;8.48;;;5.32;;
79047;SDS011;68680;50.764;6.120;2024-03-17T07:01:12;9.20;;;5.18;;
79047;SDS011;68680;50.764;6.120;2024-03-17T07:03:38;7.07;;;5.47;;
79047;SDS011;68680;50.764;6.120;2024-03-17T07:06:04;7.35;;;5.75;;
79047;SDS011;68680;50.764;6.120;2024-03-17T07:08:30;9.23;;;6.38;;
79047;SDS011;68680;50.764;6.120;2024-03-17T07:11:00;9.50;;;6.72;;
79047;SDS011;68680;50.764;6.120;2024-03-17T07:13:29;11.45;;;5.63;;
79047;SDS011;68680;50.764;6.120;2024-03-17T07:15:56;10.60;;;5.57;;
79047;SDS011;68680;50.764;6.120;2024-03-17T07:18:22;8.90;;;5.22;;
79047;SDS011;68680;50.764;6.120;2024-03-17T07:20:50;7.63;;;5.40;;
79047;SDS011;68680;50.764;6.120;2024-03-17T07:23:15;6.55;;;5.22;;
79047;SDS011;68680;50.764;6.120;2024-03-17T07:25:41;7.95;;;6.30;;
79047;SDS011;68680;50.764;6.120;2024-03-17T07:28:15;10.82;;;6.13;;
79047;SDS011;68680;50.764;6.120;2024-03-17T07:30:47;10.57;;;5.72;;
79047;SDS011;68680;50.764;6.120;2024-03-17T07:33:13;8.95;;;6.05;;
79047;SDS011;68680;50.764;6.120;2024-03-17T07:35:45;7.75;;;6.05;;
79047;SDS011;68680;50.764;6.120;2024-03-17T07:38:12;10.48;;;6.50;;
79047;SDS011;68680;50.764;6.120;2024-03-17T07:40:38;11.20;;;6.75;;
79047;SDS011;68680;50.764;6.120;2024-03-17T07:43:04;10.10;;;6.72;;
79047;SDS011;68680;50.764;6.120;2024-03-17T07:45:30;7.72;;;6.15;;
79047;SDS011;68680;50.764;6.120;2024-03-17T07:47:57;10.88;;;6.13;;
79047;SDS011;68680;50.764;6.120;2024-03-17T07:50:23;12.52;;;6.75;;
79047;SDS011;68680;50.764;6.120;2024-03-17T07:52:49;10.05;;;6.63;;
79047;SDS011;68680;50.764;6.120;2024-03-17T07:55:15;10.95;;;6.15;;
79047;SDS011;68680;50.764;6.120;2024-03-17T07:57:40;9.73;;;6.30;;
79047;SDS011;68680;50.764;6.120;2024-03-17T08:00:07;7.63;;;5.60;;
79047;SDS011;68680;50.764;6.120;2024-03-17T08:02:33;15.15;;;6.20;;
79047;SDS011;68680;50.764;6.120;2024-03-17T08:05:00;9.95;;;6.13;;
79047;SDS011;68680;50.764;6.120;2024-03-17T08:07:26;10.65;;;5.53;;
79047;SDS011;68680;50.764;6.120;2024-03-17T08:09:52;11.70;;;6.32;;
79047;SDS011;68680;50.764;6.120;2024-03-17T08:12:18;9.60;;;6.57;;
79047;SDS011;68680;50.764;6.120;2024-03-17T08:14:44;7.63;;;5.10;;
79047;SDS011;68680;50.764;6.120;2024-03-17T08:17:09;10.50;;;6.18;;
79047;SDS011;68680;50.764;6.120;2024-03-17T08:19:35;7.75;;;5.63;;
79047;SDS011;68680;50.764;6.120;2024-03-17T08:22:02;9.90;;;5.63;;
79047;SDS011;68680;50.764;6.120;2024-03-17T08:24:28;6.82;;;5.53;;
79047;SDS011;68680;50.764;6.120;2024-03-17T08:26:54;8.90;;;6.00;;
79047;SDS011;68680;50.764;6.120;2024-03-17T08:29:20;9.05;;;5.70;;
79047;SDS011;68680;50.764;6.120;2024-03-17T08:31:45;11.73;;;8.25;;
79047;SDS011;68680;50.764;6.120;2024-03-17T08:34:11;12.30;;;5.05;;
79047;SDS011;68680;50.764;6.120;2024-03-17T08:36:37;10.55;;;6.00;;
79047;SDS011;68680;50.764;6.120;2024-03-17T08:39:04;10.05;;;5.28;;
79047;SDS011;68680;50.764;6.120;2024-03-17T08:41:30;10.77;;;5.88;;
79047;SDS011;68680;50.764;6.120;2024-03-17T08:43:56;9.57;;;6.20;;
79047;SDS011;68680;50.764;6.120;2024-03-17T08:46:21;7.72;;;5.85;;
79047;SDS011;68680;50.764;6.120;2024-03-17T08:48:47;8.98;;;5.80;;
79047;SDS011;68680;50.764;6.120;2024-03-17T08:51:13;12.10;;;6.32;;
79047;SDS011;68680;50.764;6.120;2024-03-17T08:53:39;9.20;;;5.55;;
79047;SDS011;68680;50.764;6.120;2024-03-17T08:56:06;18.98;;;8.10;;
79047;SDS011;68680;50.764;6.120;2024-03-17T08:58:32;7.80;;;5.32;;
79047;SDS011;68680;50.764;6.120;2024-03-17T09:00:58;9.48;;;5.68;;
79047;SDS011;68680;50.764;6.120;2024-03-17T09:03:23;10.98;;;5.70;;
79047;SDS011;68680;50.764;6.120;2024-03-17T09:05:49;9.27;;;5.53;;
79047;SDS011;68680;50.764;6.120;2024-03-17T09:08:16;9.75;;;5.53;;
79047;SDS011;68680;50.764;6.120;2024-03-17T09:10:43;9.20;;;5.43;;
79047;SDS011;68680;50.764;6.120;2024-03-17T09:13:12;9.65;;;5.63;;
79047;SDS011;68680;50.764;6.120;2024-03-17T09:15:40;11.60;;;6.80;;
79047;SDS011;68680;50.764;6.120;2024-03-17T09:18:06;10.95;;;6.43;;
79047;SDS011;68680;50.764;6.120;2024-03-17T09:20:32;5.90;;;5.30;;
79047;SDS011;68680;50.764;6.120;2024-03-17T09:22:57;6.78;;;5.50;;
79047;SDS011;68680;50.764;6.120;2024-03-17T09:25:23;12.65;;;6.03;;
79047;SDS011;68680;50.764;6.120;2024-03-17T09:27:49;7.47;;;4.97;;
79047;SDS011;68680;50.764;6.120;2024-03-17T09:30:16;11.00;;;5.28;;
79047;SDS011;68680;50.764;6.120;2024-03-17T09:32:42;9.15;;;4.97;;
79047;SDS011;68680;50.764;6.120;2024-03-17T09:35:08;10.70;;;6.13;;
79047;SDS011;68680;50.764;6.120;2024-03-17T09:37:34;11.82;;;6.15;;
79047;SDS011;68680;50.764;6.120;2024-03-17T09:40:00;8.43;;;4.90;;
79047;SDS011;68680;50.764;6.120;2024-03-17T09:42:26;6.20;;;4.55;;
79047;SDS011;68680;50.764;6.120;2024-03-17T09:44:52;8.65;;;4.88;;
79047;SDS011;68680;50.764;6.120;2024-03-17T09:47:20;12.77;;;5.07;;
79047;SDS011;68680;50.764;6.120;2024-03-17T09:49:46;5.53;;;3.95;;
79047;SDS011;68680;50.764;6.120;2024-03-17T09:52:16;6.32;;;4.10;;
79047;SDS011;68680;50.764;6.120;2024-03-17T09:54:45;7.65;;;4.53;;
79047;SDS011;68680;50.764;6.120;2024-03-17T09:57:14;6.32;;;4.25;;
79047;SDS011;68680;50.764;6.120;2024-03-17T09:59:42;6.70;;;4.82;;
79047;SDS011;68680;50.764;6.120;2024-03-17T10:02:15;10.00;;;4.60;;
79047;SDS011;68680;50.764;6.120;2024-03-17T10:04:44;10.30;;;4.18;;
79047;SDS011;68680;50.764;6.120;2024-03-17T10:07:10;9.20;;;4.18;;
79047;SDS011;68680;50.764;6.120;2024-03-17T10:09:35;11.10;;;4.28;;
79047;SDS011;68680;50.764;6.120;2024-03-17T10:12:01;7.03;;;4.07;;
79047;SDS011;68680;50.764;6.120;2024-03-17T10:14:28;6.40;;;4.00;;
79047;SDS011;68680;50.764;6.120;2024-03-17T10:16:54;8.88;;;5.07;;
79047;SDS011;68680;50.764;6.120;2024-03-17T10:19:21;10.05;;;4.45;;
79047;SDS011;68680;50.764;6.120;2024-03-17T10:21:50;9.32;;;3.95;;
79047;SDS011;68680;50.764;6.120;2024-03-17T10:24:24;6.78;;;4.72;;
79047;SDS011;68680;50.764;6.120;2024-03-17T10:26:52;6.15;;;3.65;;
79047;SDS011;68680;50.764;6.120;2024-03-17T10:29:21;8.38;;;4.20;;
79047;SDS011;68680;50.764;6.120;2024-03-17T10:31:49;4.53;;;3.63;;
79047;SDS011;68680;50.764;6.120;2024-03-17T10:34:15;7.03;;;3.92;;
79047;SDS011;68680;50.764;6.120;2024-03-17T10:36:41;5.03;;;4.13;;
79047;SDS011;68680;50.764;6.120;2024-03-17T10:39:11;10.52;;;3.95;;
79047;SDS011;68680;50.764;6.120;2024-03-17T10:41:49;7.22;;;4.55;;
79047;SDS011;68680;50.764;6.120;2024-03-17T10:44:15;8.02;;;4.38;;
79047;SDS011;68680;50.764;6.120;2024-03-17T10:46:41;6.63;;;4.05;;
79047;SDS011;68680;50.764;6.120;2024-03-17T10:49:08;5.05;;;3.90;;
79047;SDS011;68680;50.764;6.120;2024-03-17T10:51:37;9.45;;;3.88;;
79047;SDS011;68680;50.764;6.120;2024-03-17T10:54:05;8.18;;;4.30;;
79047;SDS011;68680;50.764;6.120;2024-03-17T10:56:36;7.07;;;3.83;;
79047;SDS011;68680;50.764;6.120;2024-03-17T10:59:01;8.50;;;4.38;;
79047;SDS011;68680;50.764;6.120;2024-03-17T11:01:29;11.70;;;5.05;;
79047;SDS011;68680;50.764;6.120;2024-03-17T11:03:55;7.77;;;4.33;;
79047;SDS011;68680;50.764;6.120;2024-03-17T11:06:22;6.07;;;4.40;;
79047;SDS011;68680;50.764;6.120;2024-03-17T11:08:47;9.07;;;4.32;;
79047;SDS011;68680;50.764;6.120;2024-03-17T11:11:14;10.00;;;4.53;;
79047;SDS011;68680;50.764;6.120;2024-03-17T11:14:15;9.13;;;4.13;;
79047;SDS011;68680;50.764;6.120;2024-03-17T11:16:42;6.73;;;3.87;;
79047;SDS011;68680;50.764;6.120;2024-03-17T11:19:08;7.75;;;4.18;;
79047;SDS011;68680;50.764;6.120;2024-03-17T11:21:40;8.23;;;4.40;;
79047;SDS011;68680;50.764;6.120;2024-03-17T11:24:06;7.30;;;4.18;;
79047;SDS011;68680;50.764;6.120;2024-03-17T11:26:45;8.65;;;4.18;;
79047;SDS011;68680;50.764;6.120;2024-03-17T11:29:25;11.05;;;5.03;;
79047;SDS011;68680;50.764;6.120;2024-03-17T11:31:53;9.13;;;4.28;;
79047;SDS011;68680;50.764;6.120;2024-03-17T11:34:34;8.52;;;4.00;;
79047;SDS011;68680;50.764;6.120;2024-03-17T11:42:16;9.23;;;4.00;;
79047;SDS011;68680;50.764;6.120;2024-03-17T11:44:43;7.22;;;4.10;;
79047;SDS011;68680;50.764;6.120;2024-03-17T11:47:20;10.98;;;4.10;;
79047;SDS011;68680;50.764;6.120;2024-03-17T11:49:46;9.40;;;4.32;;
79047;SDS011;68680;50.764;6.120;2024-03-17T11:52:16;6.78;;;4.35;;
79047;SDS011;68680;50.764;6.120;2024-03-17T11:54:42;9.45;;;4.78;;
79047;SDS011;68680;50.764;6.120;2024-03-17T11:57:11;11.70;;;4.00;;
79047;SDS011;68680;50.764;6.120;2024-03-17T11:59:40;9.18;;;4.38;;
79047;SDS011;68680;50.764;6.120;2024-03-17T12:02:10;6.53;;;3.70;;
79047;SDS011;68680;50.764;6.120;2024-03-17T12:04:43;6.53;;;4.35;;
79047;SDS011;68680;50.764;6.120;2024-03-17T12:07:10;9.50;;;4.88;;
79047;SDS011;68680;50.764;6.120;2024-03-17T12:09:40;9.57;;;5.45;;
79047;SDS011;68680;50.764;6.120;2024-03-17T12:12:08;12.00;;;5.25;;
79047;SDS011;68680;50.764;6.120;2024-03-17T12:14:43;10.77;;;4.75;;
79047;SDS011;68680;50.764;6.120;2024-03-17T12:17:09;7.53;;;4.95;;
79047;SDS011;68680;50.764;6.120;2024-03-17T12:19:37;6.82;;;4.88;;
79047;SDS011;68680;50.764;6.120;2024-03-17T12:22:03;13.00;;;5.07;;
79047;SDS011;68680;50.764;6.120;2024-03-17T12:24:32;9.18;;;4.82;;
79047;SDS011;68680;50.764;6.120;2024-03-17T12:26:59;9.40;;;4.50;;
79047;SDS011;68680;50.764;6.120;2024-03-17T12:29:29;9.45;;;5.57;;
79047;SDS011;68680;50.764;6.120;2024-03-17T12:32:00;9.90;;;4.38;;
79047;SDS011;68680;50.764;6.120;2024-03-17T12:36:55;6.97;;;5.05;;
79047;SDS011;68680;50.764;6.120;2024-03-17T12:39:24;8.10;;;4.50;;
79047;SDS011;68680;50.764;6.120;2024-03-17T12:42:03;5.68;;;4.03;;
79047;SDS011;68680;50.764;6.120;2024-03-17T12:44:31;7.43;;;4.00;;
79047;SDS011;68680;50.764;6.120;2024-03-17T12:47:00;10.32;;;4.28;;
79047;SDS011;68680;50.764;6.120;2024-03-17T12:49:28;8.88;;;3.50;;
79047;SDS011;68680;50.764;6.120;2024-03-17T12:51:54;4.65;;;3.13;;
79047;SDS011;68680;50.764;6.120;2024-03-17T12:54:23;4.97;;;2.80;;
79047;SDS011;68680;50.764;6.120;2024-03-17T12:56:51;4.60;;;3.47;;
79047;SDS011;68680;50.764;6.120;2024-03-17T12:59:36;5.28;;;3.08;;
79047;SDS011;68680;50.764;6.120;2024-03-17T13:02:07;6.38;;;2.90;;
79047;SDS011;68680;50.764;6.120;2024-03-17T13:04:36;7.25;;;4.50;;
79047;SDS011;68680;50.764;6.120;2024-03-17T13:07:08;10.40;;;3.75;;
79047;SDS011;68680;50.764;6.120;2024-03-17T13:09:35;7.28;;;3.47;;
79047;SDS011;68680;50.764;6.120;2024-03-17T13:12:01;8.00;;;3.65;;
79047;SDS011;68680;50.764;6.120;2024-03-17T13:14:27;8.43;;;3.50;;
79047;SDS011;68680;50.764;6.120;2024-03-17T13:16:53;16.48;;;4.38;;
79047;SDS011;68680;50.764;6.120;2024-03-17T13:19:20;8.95;;;4.97;;
79047;SDS011;68680;50.764;6.120;2024-03-17T13:21:46;10.88;;;3.80;;
79047;SDS011;68680;50.764;6.120;2024-03-17T13:24:12;5.30;;;3.13;;
79047;SDS011;68680;50.764;6.120;2024-03-17T13:26:37;13.50;;;3.88;;
79047;SDS011;68680;50.764;6.120;2024-03-17T13:29:03;17.65;;;5.45;;
79047;SDS011;68680;50.764;6.120;2024-03-17T13:31:29;5.60;;;3.42;;
79047;SDS011;68680;50.764;6.120;2024-03-17T13:33:55;9.80;;;3.58;;
79047;SDS011;68680;50.764;6.120;2024-03-17T13:36:22;16.88;;;4.45;;
79047;SDS011;68680;50.764;6.120;2024-03-17T13:38:52;8.88;;;3.85;;
79047;SDS011;68680;50.764;6.120;2024-03-17T13:41:18;5.78;;;2.80;;
79047;SDS011;68680;50.764;6.120;2024-03-17T13:43:43;6.90;;;2.53;;
79047;SDS011;68680;50.764;6.120;2024-03-17T13:46:09;6.55;;;2.80;;
79047;SDS011;68680;50.764;6.120;2024-03-17T13:48:35;14.10;;;3.88;;
79047;SDS011;68680;50.764;6.120;2024-03-17T13:51:01;5.22;;;2.70;;
79047;SDS011;68680;50.764;6.120;2024-03-17T13:53:28;4.82;;;2.60;;
79047;SDS011;68680;50.764;6.120;2024-03-17T13:55:54;6.47;;;3.10;;
79047;SDS011;68680;50.764;6.120;2024-03-17T13:58:20;5.50;;;2.72;;
79047;SDS011;68680;50.764;6.120;2024-03-17T14:00:46;9.80;;;2.53;;
79047;SDS011;68680;50.764;6.120;2024-03-17T14:03:11;5.57;;;2.40;;
79047;SDS011;68680;50.764;6.120;2024-03-17T14:05:37;6.55;;;2.42;;
79047;SDS011;68680;50.764;6.120;2024-03-17T14:08:03;4.13;;;2.30;;
79047;SDS011;68680;50.764;6.120;2024-03-17T14:10:31;4.90;;;2.40;;
79047;SDS011;68680;50.764;6.120;2024-03-17T14:12:57;5.55;;;2.20;;
79047;SDS011;68680;50.764;6.120;2024-03-17T14:15:23;3.97;;;2.35;;
79047;SDS011;68680;50.764;6.120;2024-03-17T14:17:49;4.22;;;2.33;;
79047;SDS011;68680;50.764;6.120;2024-03-17T14:20:14;4.30;;;2.28;;
79047;SDS011;68680;50.764;6.120;2024-03-17T14:22:42;5.18;;;3.10;;
79047;SDS011;68680;50.764;6.120;2024-03-17T14:25:10;4.18;;;1.80;;
79047;SDS011;68680;50.764;6.120;2024-03-17T14:27:42;3.17;;;1.77;;
79047;SDS011;68680;50.764;6.120;2024-03-17T14:30:08;6.38;;;2.10;;
79047;SDS011;68680;50.764;6.120;2024-03-17T14:32:39;2.47;;;1.75;;
79047;SDS011;68680;50.764;6.120;2024-03-17T14:35:05;2.58;;;2.00;;
79047;SDS011;68680;50.764;6.120;2024-03-17T14:37:36;6.82;;;2.55;;
79047;SDS011;68680;50.764;6.120;2024-03-17T14:40:02;6.82;;;2.30;;
79047;SDS011;68680;50.764;6.120;2024-03-17T14:42:28;4.57;;;2.15;;
79047;SDS011;68680;50.764;6.120;2024-03-17T14:44:55;3.60;;;1.73;;
79047;SDS011;68680;50.764;6.120;2024-03-17T14:47:21;4.65;;;2.80;;
79047;SDS011;68680;50.764;6.120;2024-03-17T14:49:47;4.32;;;2.30;;